createdAt,value
2022-10-07T00:03:09.216Z,16.45
2022-10-07T00:08:12.626Z,16.29
2022-10-07T00:13:15.434Z,14.42
2022-10-07T00:18:18.438Z,13.37
2022-10-07T00:23:21.238Z,12.64
2022-10-07T00:28:24.152Z,13.46
2022-10-07T00:33:30.321Z,16.40
2022-10-07T00:38:32.995Z,15.83
2022-10-07T00:43:35.886Z,14.03
2022-10-07T00:48:39.845Z,13.02
2022-10-07T00:53:46.587Z,12.33
2022-10-07T00:58:50.502Z,13.17
2022-10-07T01:03:54.315Z,16.27
2022-10-07T01:08:57.715Z,16.15
2022-10-07T01:14:16.985Z,14.20
2022-10-07T01:19:45.810Z,13.04
2022-10-07T01:25:03.557Z,12.42
2022-10-07T01:30:08.136Z,15.02
2022-10-07T01:35:20.883Z,15.86
2022-10-07T01:40:28.353Z,13.75
2022-10-07T01:45:35.549Z,12.47
2022-10-07T01:50:39.377Z,11.68
2022-10-07T01:56:16.172Z,12.49
2022-10-07T02:01:39.695Z,15.69
2022-10-07T02:06:57.594Z,15.33
2022-10-07T02:12:10.311Z,13.24
2022-10-07T02:17:17.921Z,12.11
2022-10-07T02:22:24.551Z,12.85
2022-10-07T02:27:32.986Z,15.67
2022-10-07T02:32:39.369Z,15.49
2022-10-07T02:37:43.976Z,13.42
2022-10-07T02:43:06.833Z,12.22
2022-10-07T02:48:24.616Z,12.96
2022-10-07T02:53:29.899Z,15.31
2022-10-07T02:58:34.240Z,13.66
2022-10-07T03:03:37.086Z,12.21
2022-10-07T03:08:41.957Z,12.09
2022-10-07T03:13:46.018Z,14.99
2022-10-07T03:18:49.428Z,15.43
2022-10-07T03:23:53.360Z,13.43
2022-10-07T03:28:56.061Z,12.23
2022-10-07T03:33:59.687Z,11.44
2022-10-07T03:39:03.913Z,10.87
2022-10-07T03:44:06.581Z,11.93
2022-10-07T03:49:09.307Z,15.07
2022-10-07T03:54:12.202Z,14.82
2022-10-07T03:59:14.809Z,12.90
2022-10-07T04:04:17.607Z,11.82
2022-10-07T04:09:20.307Z,11.10
2022-10-07T04:14:23.158Z,11.93
2022-10-07T04:19:26.765Z,15.14
2022-10-07T04:24:29.527Z,15.17
2022-10-07T04:29:38.152Z,13.13
2022-10-07T04:34:41.795Z,11.92
2022-10-07T04:40:00.236Z,11.18
2022-10-07T04:45:04.452Z,10.61
2022-10-07T04:50:08.181Z,11.69
2022-10-07T04:55:14.417Z,14.86
2022-10-07T05:00:17.040Z,15.31
2022-10-07T05:05:20.095Z,13.24
2022-10-07T05:10:22.799Z,12.03
2022-10-07T05:15:25.492Z,11.25
2022-10-07T05:20:28.708Z,12.12
2022-10-07T05:25:31.392Z,15.25
2022-10-07T05:30:34.066Z,14.53
2022-10-07T05:35:36.799Z,12.66
2022-10-07T05:40:39.414Z,11.64
2022-10-07T05:45:42.445Z,11.30
2022-10-07T05:50:47.821Z,14.27
2022-10-07T05:55:51.633Z,15.25
2022-10-07T06:01:03.721Z,13.21
2022-10-07T06:06:09.109Z,12.01
2022-10-07T06:11:32.580Z,12.85
2022-10-07T06:16:35.293Z,15.86
2022-10-07T06:21:38.049Z,15.34
2022-10-07T06:26:42.287Z,13.38
2022-10-07T06:31:46.522Z,12.45
2022-10-07T06:36:49.213Z,14.62
2022-10-07T06:41:54.767Z,14.76
2022-10-07T06:46:57.751Z,13.23
2022-10-07T06:52:00.709Z,13.05
2022-10-07T06:57:11.561Z,15.95
2022-10-07T07:02:27.009Z,15.30
2022-10-07T07:07:30.203Z,13.83
2022-10-07T07:12:33.621Z,13.12
2022-10-07T07:17:36.421Z,12.83
2022-10-07T07:22:39.477Z,15.48
2022-10-07T07:27:42.510Z,16.91
2022-10-07T07:32:46.086Z,15.42
2022-10-07T07:37:48.919Z,14.57
2022-10-07T07:42:55.085Z,14.12
2022-10-07T07:47:59.259Z,15.13
2022-10-07T07:53:04.549Z,16.98
2022-10-07T07:58:11.640Z,15.76
2022-10-07T08:03:14.621Z,15.05
2022-10-07T08:08:17.321Z,14.76
2022-10-07T08:13:20.074Z,14.68
2022-10-07T08:18:22.685Z,16.87
2022-10-07T08:23:28.444Z,18.82
2022-10-07T08:28:32.005Z,17.48
2022-10-07T08:33:40.760Z,16.80
2022-10-07T08:38:48.223Z,16.43
2022-10-07T08:43:51.908Z,16.32
2022-10-07T08:49:17.851Z,16.24
2022-10-07T08:54:28.398Z,16.12
2022-10-07T09:00:07.124Z,16.04
2022-10-07T09:05:19.848Z,16.14
2022-10-07T09:10:37.423Z,16.34
2022-10-07T09:16:04.130Z,16.53
2022-10-07T09:21:34.459Z,16.67
2022-10-07T09:26:37.243Z,16.77
2022-10-07T09:31:40.186Z,17.01
2022-10-07T09:37:13.084Z,17.14
2022-10-07T09:42:35.004Z,17.31
2022-10-07T09:47:40.574Z,17.49
2022-10-07T09:52:55.896Z,17.72
2022-10-07T09:58:01.190Z,17.90
2022-10-07T10:03:07.639Z,18.07
2022-10-07T10:08:13.534Z,18.26
2022-10-07T10:13:39.268Z,18.38
2022-10-07T10:18:53.424Z,18.51
2022-10-07T10:23:59.422Z,18.66
2022-10-07T10:29:17.086Z,18.77
2022-10-07T10:34:42.855Z,18.92
2022-10-07T10:39:52.753Z,20.04
2022-10-07T10:45:30.337Z,21.54
2022-10-07T10:51:06.117Z,22.90
2022-10-07T10:56:38.899Z,24.12
2022-10-07T11:01:44.383Z,25.21
2022-10-07T11:06:57.678Z,25.94
2022-10-07T11:12:04.970Z,26.78
2022-10-07T11:17:08.319Z,27.35
2022-10-07T11:22:20.210Z,27.86
2022-10-07T11:27:34.666Z,28.26
2022-10-07T11:33:06.240Z,28.83
2022-10-07T11:38:14.676Z,29.38
2022-10-07T11:43:38.450Z,29.59
2022-10-07T11:48:53.217Z,29.98
2022-10-07T11:54:01.126Z,30.83
2022-10-07T11:59:06.917Z,31.69
2022-10-07T12:04:37.150Z,31.88
2022-10-07T12:09:59.256Z,31.90
2022-10-07T12:15:04.527Z,32.44
2022-10-07T12:20:37.202Z,32.69
2022-10-07T12:25:48.073Z,33.29
2022-10-07T12:30:53.557Z,34.02
2022-10-07T12:35:56.308Z,33.78
2022-10-07T12:41:12.050Z,32.84
2022-10-07T12:46:19.995Z,31.16
2022-10-07T12:51:28.310Z,29.45
2022-10-07T12:56:31.349Z,27.74
2022-10-07T13:02:10.493Z,26.02
2022-10-07T13:07:40.859Z,24.42
2022-10-07T13:13:01.300Z,23.57
2022-10-07T13:18:38.008Z,22.93
2022-10-07T13:23:40.723Z,22.15
2022-10-07T13:28:53.694Z,21.50
2022-10-07T13:33:59.106Z,20.81
2022-10-07T13:39:13.177Z,20.36
2022-10-07T13:44:19.234Z,20.02
2022-10-07T13:49:27.683Z,19.67
2022-10-07T13:54:33.115Z,19.47
2022-10-07T13:59:36.765Z,19.33
2022-10-07T14:05:00.510Z,19.17
2022-10-07T14:10:09.743Z,19.00
2022-10-07T14:15:18.818Z,18.90
2022-10-07T14:20:29.342Z,18.75
2022-10-07T14:25:49.643Z,18.71
2022-10-07T14:31:23.405Z,18.58
2022-10-07T14:36:26.511Z,18.55
2022-10-07T14:41:31.553Z,18.48
2022-10-07T14:46:34.501Z,18.44
2022-10-07T14:51:37.543Z,18.63
2022-10-07T14:56:40.249Z,19.67
2022-10-07T15:01:42.937Z,21.20
2022-10-07T15:06:50.614Z,22.90
2022-10-07T15:11:53.771Z,23.34
2022-10-07T15:16:57.703Z,22.43
2022-10-07T15:22:01.422Z,21.47
2022-10-07T15:27:06.578Z,20.75
2022-10-07T15:32:09.379Z,20.17
2022-10-07T15:37:12.078Z,19.61
2022-10-07T15:42:15.799Z,19.08
2022-10-07T15:47:18.740Z,18.62
2022-10-07T15:52:21.405Z,18.20
2022-10-07T15:57:24.500Z,17.78
2022-10-07T16:02:27.224Z,17.39
2022-10-07T16:07:30.420Z,17.03
2022-10-07T16:12:33.055Z,16.73
2022-10-07T16:17:35.717Z,16.50
2022-10-07T16:22:38.334Z,16.27
2022-10-07T16:27:59.772Z,16.04
2022-10-07T16:33:02.554Z,15.82
2022-10-07T16:38:05.555Z,15.63
2022-10-07T16:43:08.184Z,15.43
2022-10-07T16:48:10.833Z,15.24
2022-10-07T16:53:13.650Z,15.09
2022-10-07T16:58:16.543Z,14.94
2022-10-07T17:03:21.002Z,14.80
2022-10-07T17:08:24.128Z,14.66
2022-10-07T17:13:28.782Z,14.53
2022-10-07T17:18:33.933Z,14.36
2022-10-07T17:23:36.599Z,14.21
2022-10-07T17:28:39.412Z,14.11
2022-10-07T17:33:43.625Z,13.98
2022-10-07T17:38:46.333Z,13.87
2022-10-07T17:43:52.310Z,13.76
2022-10-07T17:48:57.474Z,13.63
2022-10-07T17:54:01.803Z,13.52
2022-10-07T17:59:05.559Z,13.39
2022-10-07T18:04:13.092Z,13.27
2022-10-07T18:09:18.685Z,13.15
2022-10-07T18:14:40.758Z,13.06
2022-10-07T18:19:45.201Z,12.95
2022-10-07T18:24:47.899Z,12.87
2022-10-07T18:29:51.006Z,12.81
2022-10-07T18:34:53.689Z,12.75
2022-10-07T18:39:56.498Z,12.65
2022-10-07T18:44:59.131Z,12.55
2022-10-07T18:50:01.803Z,12.42
2022-10-07T18:55:05.330Z,12.32
2022-10-07T19:00:08.926Z,12.23
2022-10-07T19:05:11.611Z,12.09
2022-10-07T19:10:14.422Z,11.96
2022-10-07T19:15:17.234Z,13.23
2022-10-07T19:20:19.852Z,16.57
2022-10-07T19:25:41.269Z,17.15
2022-10-07T19:30:45.311Z,15.31
2022-10-07T19:35:55.577Z,14.25
2022-10-07T19:40:58.267Z,13.57
2022-10-07T19:46:02.529Z,13.09
2022-10-07T19:51:08.781Z,12.71
2022-10-07T19:56:16.518Z,12.38
2022-10-07T20:01:21.981Z,12.08
2022-10-07T20:06:25.575Z,11.85
2022-10-07T20:11:28.404Z,11.67
2022-10-07T20:16:31.916Z,13.02
2022-10-07T20:21:37.130Z,16.51
2022-10-07T20:26:41.300Z,16.41
2022-10-07T20:31:45.023Z,14.56
2022-10-07T20:36:50.400Z,13.54
2022-10-07T20:42:12.548Z,12.91
2022-10-07T20:47:16.162Z,12.40
2022-10-07T20:52:24.678Z,11.98
2022-10-07T20:57:33.251Z,11.67
2022-10-07T21:02:36.081Z,12.85
2022-10-07T21:07:39.746Z,16.11
2022-10-07T21:12:43.014Z,16.25
2022-10-07T21:17:48.838Z,14.46
2022-10-07T21:22:54.294Z,13.40
2022-10-07T21:27:56.970Z,12.68
2022-10-07T21:32:59.633Z,12.16
2022-10-07T21:38:02.304Z,11.76
2022-10-07T21:43:04.957Z,12.76
2022-10-07T21:48:07.630Z,16.00
2022-10-07T21:53:10.788Z,15.97
2022-10-07T21:58:15.253Z,14.25
2022-10-07T22:03:18.245Z,13.28
2022-10-07T22:08:36.201Z,12.61
2022-10-07T22:13:45.642Z,12.06
2022-10-07T22:18:50.896Z,11.63
2022-10-07T22:23:58.868Z,11.33
2022-10-07T22:29:01.548Z,12.53
2022-10-07T22:34:05.914Z,15.71
2022-10-07T22:39:08.571Z,16.20
2022-10-07T22:44:11.172Z,14.40
2022-10-07T22:49:15.095Z,13.37
2022-10-07T22:54:17.882Z,12.72
2022-10-07T22:59:21.301Z,12.21
2022-10-07T23:04:24.116Z,11.82
2022-10-07T23:09:26.711Z,12.88
2022-10-07T23:14:29.408Z,16.07
2022-10-07T23:19:32.104Z,16.54
2022-10-07T23:24:36.149Z,14.73
2022-10-07T23:29:38.832Z,13.69
2022-10-07T23:34:41.575Z,13.03
2022-10-07T23:39:44.220Z,12.51
2022-10-07T23:44:46.844Z,13.42
2022-10-07T23:49:49.504Z,16.52
2022-10-07T23:54:52.187Z,16.93
2022-10-07T23:59:54.822Z,15.07
